LFKS 301600Z AUTO 07003KT 050V120 CAVOK 24/17 Q1021

ElémentsDécodage
LFKS Station météo située sur l'aérodrome de SOLENZARA
301600Z émis le 30 du mois à 16h00 UTC
AUTO Bulletin édité par un automate
07003KT vent du 070°, 03 noeuds
050V120 vent de direction variable entre 050° et 120°
CAVOK Ceiling And Visibility OK
- Visibilité de 10 Km ou plus
- Pas de nuage au-dessous de 1500m ou au-dessous de l'altitude minimale du secteur la plus élevée (si>1500m) et absence de CB
- pas de temps présent significatif
24/17 température 24°C, point de rosée 17°C
 soit une humidité relative de 65%
Q1021 la pression au niveau de la mer (QNH) est de 1021 hPa